Time;durP1;ratioP1;P1;durP2;ratioP2;P2;SDS_P1;SDS_P2;PMS_P1;PMS_P2;Temp;Humidity;BMP_temperature;BMP_pressure;BME280_temperature;BME280_humidity;BME280_pressure;Samples;Min_cycle;Max_cycle;Signal;HPM_P1;HPM_P2
2022/03/11 00:00:56;;;;;;;19.08;13.60;;;18.70;29.40;;;;;;5118294;28;20069;-41
2022/03/11 00:03:23;;;;;;;18.27;13.15;;;18.70;29.40;;;;;;5118429;28;20056;-37
2022/03/11 00:05:49;;;;;;;18.40;12.45;;;18.70;29.30;;;;;;5118954;28;20067;-38
2022/03/11 00:08:14;;;;;;;19.65;13.20;;;18.70;29.30;;;;;;5118409;27;20039;-39
2022/03/11 00:10:40;;;;;;;17.58;12.38;;;18.70;29.30;;;;;;5100986;28;20020;-37
2022/03/11 00:13:06;;;;;;;17.50;12.77;;;18.70;29.30;;;;;;5118729;28;20024;-40
2022/03/11 00:15:32;;;;;;;16.05;11.90;;;18.70;29.30;;;;;;5100753;28;20019;-39
2022/03/11 00:17:58;;;;;;;17.48;11.68;;;18.70;29.20;;;;;;5100506;28;20023;-38
2022/03/11 00:20:24;;;;;;;16.67;11.80;;;18.60;29.10;;;;;;5119400;28;20020;-38
2022/03/11 00:22:50;;;;;;;16.55;11.70;;;18.60;29.20;;;;;;5119343;28;20060;-41
2022/03/11 00:25:17;;;;;;;14.73;11.60;;;18.60;29.20;;;;;;5118166;28;20462;-39
2022/03/11 00:27:44;;;;;;;17.63;11.85;;;18.60;29.10;;;;;;5119066;28;20031;-40
2022/03/11 00:30:10;;;;;;;16.45;11.80;;;18.60;29.20;;;;;;5117984;28;20014;-39
2022/03/11 00:32:37;;;;;;;16.33;11.82;;;18.60;29.10;;;;;;5099878;28;20042;-37
2022/03/11 00:35:07;;;;;;;14.98;11.05;;;18.60;29.10;;;;;;5100693;28;20035;-40
2022/03/11 00:37:33;;;;;;;15.97;11.07;;;18.60;29.00;;;;;;5118810;28;20477;-37
2022/03/11 00:39:59;;;;;;;14.77;10.57;;;18.60;29.10;;;;;;5118520;28;20056;-39
2022/03/11 00:42:26;;;;;;;16.13;11.18;;;18.60;28.90;;;;;;5118038;28;20432;-40
2022/03/11 00:44:52;;;;;;;13.55;10.18;;;18.60;29.10;;;;;;5118397;28;20008;-38
2022/03/11 00:47:18;;;;;;;13.18;10.10;;;18.60;29.00;;;;;;5101082;28;20523;-37
2022/03/11 00:49:44;;;;;;;13.88;9.98;;;18.60;29.00;;;;;;5119393;28;20012;-39
2022/03/11 00:52:10;;;;;;;14.02;10.48;;;18.60;29.10;;;;;;5119051;28;20023;-38
2022/03/11 00:54:35;;;;;;;14.13;10.77;;;18.60;28.90;;;;;;5118351;28;20478;-44
2022/03/11 00:57:01;;;;;;;13.60;9.85;;;18.60;28.90;;;;;;5117707;28;20466;-38
2022/03/11 00:59:27;;;;;;;12.30;9.25;;;18.60;29.00;;;;;;5116846;28;20016;-39
2022/03/11 01:01:53;;;;;;;13.52;9.68;;;18.50;28.90;;;;;;5116780;28;20032;-37
2022/03/11 01:04:19;;;;;;;12.60;9.57;;;18.60;28.90;;;;;;5117526;28;20019;-38
2022/03/11 01:06:45;;;;;;;12.68;9.02;;;18.50;28.80;;;;;;5118578;28;20016;-38
2022/03/11 01:09:11;;;;;;;11.70;9.23;;;18.60;28.80;;;;;;5118451;28;20007;-38
2022/03/11 01:11:38;;;;;;;11.82;9.02;;;18.50;28.80;;;;;;5117352;28;20019;-40
2022/03/11 01:14:04;;;;;;;11.77;8.65;;;18.50;28.80;;;;;;5118558;28;20016;-39
2022/03/11 01:16:30;;;;;;;11.70;8.82;;;18.50;28.80;;;;;;5118279;28;20087;-38
2022/03/11 01:18:57;;;;;;;11.38;9.00;;;18.50;28.70;;;;;;5118058;28;20044;-39
2022/03/11 01:21:23;;;;;;;12.77;9.02;;;18.50;28.70;;;;;;5118142;28;20016;-40
2022/03/11 01:23:50;;;;;;;11.68;8.82;;;18.50;28.70;;;;;;5117903;28;20057;-38
2022/03/11 01:26:16;;;;;;;11.30;8.65;;;18.40;28.70;;;;;;5117348;28;20020;-38
2022/03/11 01:28:42;;;;;;;12.27;8.30;;;18.40;28.70;;;;;;5099699;28;20012;-39
2022/03/11 01:31:11;;;;;;;9.93;7.90;;;18.50;28.70;;;;;;5118061;28;20027;-40
2022/03/11 01:33:38;;;;;;;11.00;7.55;;;18.50;28.50;;;;;;5118155;28;20019;-40
2022/03/11 01:36:04;;;;;;;10.07;7.43;;;18.50;28.60;;;;;;5117648;28;20012;-38
2022/03/11 01:38:31;;;;;;;10.52;7.75;;;18.40;28.40;;;;;;5116707;28;20023;-38
2022/03/11 01:40:57;;;;;;;9.25;7.30;;;18.40;28.50;;;;;;5116320;28;20040;-41
2022/03/11 01:43:24;;;;;;;10.73;7.85;;;18.40;28.50;;;;;;5116907;28;20082;-39
2022/03/11 01:45:50;;;;;;;10.13;7.68;;;18.40;28.50;;;;;;5098416;28;20134;-38
2022/03/11 01:48:16;;;;;;;10.13;7.93;;;18.40;28.50;;;;;;5098269;28;20016;-39
2022/03/11 01:50:43;;;;;;;9.98;7.32;;;18.40;28.50;;;;;;5116804;28;20095;-37
2022/03/11 01:53:10;;;;;;;10.57;8.30;;;18.40;28.40;;;;;;5116518;28;20012;-38
2022/03/11 01:55:36;;;;;;;9.23;7.35;;;18.40;28.50;;;;;;5116582;28;20080;-39
2022/03/11 01:58:03;;;;;;;8.93;6.85;;;18.40;28.50;;;;;;5117212;28;20027;-39
2022/03/11 02:00:28;;;;;;;8.75;7.03;;;18.40;28.40;;;;;;5116934;28;20012;-40
2022/03/11 02:02:54;;;;;;;11.68;7.35;;;18.40;28.40;;;;;;5098804;28;20047;-37
2022/03/11 02:05:21;;;;;;;9.05;7.13;;;18.40;28.40;;;;;;5116568;28;20038;-38
2022/03/11 02:07:47;;;;;;;9.05;6.90;;;18.40;28.40;;;;;;5116282;28;20369;-38
2022/03/11 02:10:13;;;;;;;8.38;6.32;;;18.40;28.30;;;;;;5115107;28;20016;-37
2022/03/11 02:12:39;;;;;;;8.68;6.68;;;18.40;28.30;;;;;;5097677;28;20055;-38
2022/03/11 02:15:07;;;;;;;8.43;6.72;;;18.40;28.40;;;;;;5115825;28;20470;-37
2022/03/11 02:17:33;;;;;;;8.65;6.85;;;18.30;28.30;;;;;;5116246;28;20081;-36
2022/03/11 02:19:59;;;;;;;8.00;6.13;;;18.40;28.30;;;;;;5116518;28;20485;-38
2022/03/11 02:22:25;;;;;;;8.38;6.55;;;18.30;28.30;;;;;;5116381;28;20031;-40
2022/03/11 02:24:52;;;;;;;8.02;6.20;;;18.30;28.30;;;;;;5116344;28;20095;-36
2022/03/11 02:27:18;;;;;;;9.80;6.63;;;18.30;28.30;;;;;;5117151;28;20111;-40
2022/03/11 02:29:44;;;;;;;7.55;5.90;;;18.30;28.20;;;;;;5117008;28;20497;-37
2022/03/11 02:32:11;;;;;;;6.97;6.10;;;18.30;28.30;;;;;;5120291;28;20072;-39
2022/03/11 02:34:38;;;;;;;7.53;5.75;;;18.30;28.20;;;;;;5121226;28;20049;-39
2022/03/11 02:37:04;;;;;;;7.35;6.05;;;18.30;28.20;;;;;;5121216;28;20016;-37
2022/03/11 02:39:30;;;;;;;7.85;5.97;;;18.30;28.20;;;;;;5120155;28;20038;-36
2022/03/11 02:42:00;;;;;;;7.55;5.70;;;18.30;28.20;;;;;;5120723;28;20019;-40
2022/03/11 02:44:29;;;;;;;7.35;6.03;;;18.30;28.10;;;;;;5120881;28;20362;-40
2022/03/11 02:46:55;;;;;;;8.57;6.03;;;18.30;28.20;;;;;;5121350;28;20057;-37
2022/03/11 02:49:21;;;;;;;7.03;5.85;;;18.20;28.10;;;;;;5103512;28;20024;-37
2022/03/11 02:51:48;;;;;;;8.18;5.63;;;18.20;28.20;;;;;;5121136;28;20014;-37
2022/03/11 02:54:14;;;;;;;6.95;5.20;;;18.20;28.20;;;;;;5121876;28;20019;-38
2022/03/11 02:56:40;;;;;;;7.57;5.72;;;18.20;28.20;;;;;;5120896;28;20024;-37
2022/03/11 02:59:06;;;;;;;7.43;5.65;;;18.20;28.30;;;;;;5120140;28;20011;-38
2022/03/11 03:01:32;;;;;;;7.38;5.50;;;18.20;28.20;;;;;;5119622;28;20481;-39
2022/03/11 03:03:58;;;;;;;7.20;5.65;;;18.20;28.20;;;;;;5085135;28;20028;-37
2022/03/11 03:06:24;;;;;;;7.38;5.70;;;18.20;28.10;;;;;;5084604;28;20037;-37
2022/03/11 03:08:49;;;;;;;9.00;5.40;;;18.20;28.20;;;;;;5118449;27;20489;-37
2022/03/11 03:11:15;;;;;;;6.88;5.28;;;18.20;28.10;;;;;;5100635;28;20374;-36
2022/03/11 03:13:40;;;;;;;8.10;5.55;;;18.20;28.10;;;;;;5084157;28;20020;-37
2022/03/11 03:16:07;;;;;;;6.63;5.40;;;18.20;28.10;;;;;;5119249;28;20073;-37
2022/03/11 03:18:33;;;;;;;7.88;5.60;;;18.20;28.00;;;;;;5118737;28;20020;-36
2022/03/11 03:20:59;;;;;;;6.32;5.20;;;18.20;28.00;;;;;;5119245;28;20024;-36
2022/03/11 03:23:26;;;;;;;6.90;5.25;;;18.20;28.00;;;;;;5119683;28;20034;-36
2022/03/11 03:25:53;;;;;;;6.22;4.95;;;18.20;28.10;;;;;;5119198;28;20047;-38
2022/03/11 03:28:19;;;;;;;6.63;5.15;;;18.20;28.00;;;;;;5119086;28;20065;-37
2022/03/11 03:30:45;;;;;;;9.50;5.53;;;18.20;28.00;;;;;;5118989;28;20008;-37
2022/03/11 03:33:11;;;;;;;7.03;5.43;;;18.20;28.00;;;;;;5119017;28;20032;-36
2022/03/11 03:35:38;;;;;;;8.98;6.05;;;18.10;28.00;;;;;;5100435;28;20012;-39
2022/03/11 03:38:04;;;;;;;6.30;5.05;;;18.10;28.00;;;;;;5118732;28;20046;-37
2022/03/11 03:40:30;;;;;;;6.20;4.97;;;18.10;28.00;;;;;;5100667;28;20039;-37
2022/03/11 03:42:57;;;;;;;6.57;5.10;;;18.10;28.00;;;;;;5118026;28;20028;-37
2022/03/11 03:45:23;;;;;;;7.07;5.43;;;18.20;28.00;;;;;;5118495;28;20020;-37
2022/03/11 03:47:50;;;;;;;6.45;4.85;;;18.10;27.90;;;;;;5119682;28;20015;-37
2022/03/11 03:50:16;;;;;;;6.18;4.97;;;18.10;27.90;;;;;;5119600;28;20553;-39
2022/03/11 03:52:42;;;;;;;7.35;5.32;;;18.10;28.00;;;;;;5119791;28;20063;-38
2022/03/11 03:55:11;;;;;;;6.15;4.70;;;18.10;28.00;;;;;;5120309;28;20024;-38
2022/03/11 03:57:37;;;;;;;6.25;4.90;;;18.10;28.00;;;;;;5102764;28;20485;-41
2022/03/11 04:00:04;;;;;;;6.50;4.65;;;18.10;27.90;;;;;;5120036;28;20024;-39
2022/03/11 04:02:32;;;;;;;6.18;5.00;;;18.10;27.90;;;;;;5120210;28;20027;-38
2022/03/11 04:04:58;;;;;;;8.73;5.30;;;18.10;27.90;;;;;;5120218;28;20008;-40
2022/03/11 04:07:24;;;;;;;6.07;4.72;;;18.10;27.90;;;;;;5120044;28;20015;-37
2022/03/11 04:09:50;;;;;;;5.82;4.80;;;18.10;27.90;;;;;;5118509;28;20026;-37
2022/03/11 04:12:17;;;;;;;6.82;5.00;;;18.10;27.90;;;;;;5119204;28;20015;-37
2022/03/11 04:14:43;;;;;;;6.15;5.05;;;18.10;27.90;;;;;;5101430;28;20016;-38
2022/03/11 04:17:09;;;;;;;6.13;5.07;;;18.00;27.90;;;;;;5119630;28;20470;-37
2022/03/11 04:19:35;;;;;;;6.50;4.95;;;18.00;27.90;;;;;;5118641;28;20082;-39
2022/03/11 04:22:02;;;;;;;5.85;4.90;;;18.10;27.90;;;;;;5118830;28;20027;-39
2022/03/11 04:24:28;;;;;;;6.22;5.00;;;18.00;27.90;;;;;;5118348;28;20020;-37
2022/03/11 04:26:54;;;;;;;6.45;4.80;;;18.00;27.90;;;;;;5099774;28;20012;-36
2022/03/11 04:29:20;;;;;;;7.30;5.03;;;18.00;28.00;;;;;;5117725;28;20022;-37
2022/03/11 04:31:45;;;;;;;8.82;5.20;;;18.00;28.00;;;;;;5117640;28;20054;-38
2022/03/11 04:34:11;;;;;;;6.68;4.40;;;18.00;27.90;;;;;;5117305;28;20023;-41
2022/03/11 04:36:38;;;;;;;7.80;4.82;;;18.00;27.90;;;;;;5099443;28;20055;-39
2022/03/11 04:39:07;;;;;;;7.85;5.03;;;18.00;27.90;;;;;;5117728;28;20016;-37
2022/03/11 04:41:34;;;;;;;6.95;4.95;;;18.00;27.90;;;;;;5117118;28;20028;-39
2022/03/11 04:44:00;;;;;;;6.05;4.72;;;18.00;27.90;;;;;;5117441;28;20051;-37
2022/03/11 04:46:26;;;;;;;7.07;4.40;;;18.00;27.80;;;;;;5117201;28;20484;-39
2022/03/11 04:48:51;;;;;;;5.45;4.40;;;18.00;27.90;;;;;;5098719;28;20056;-38
2022/03/11 04:51:19;;;;;;;5.50;4.45;;;18.10;27.90;;;;;;5117360;28;20034;-37
2022/03/11 04:53:45;;;;;;;5.50;4.50;;;18.10;27.80;;;;;;5116702;28;20039;-38
2022/03/11 04:56:11;;;;;;;5.47;4.72;;;18.30;27.70;;;;;;5117653;28;20016;-41
2022/03/11 04:58:36;;;;;;;5.55;4.40;;;18.40;27.70;;;;;;5117298;28;20069;-38
2022/03/11 05:01:03;;;;;;;5.22;4.40;;;18.50;27.50;;;;;;5116572;28;20027;-38
2022/03/11 05:03:29;;;;;;;5.75;4.43;;;18.70;27.30;;;;;;5116403;28;20027;-38
2022/03/11 05:05:56;;;;;;;5.90;4.40;;;18.70;27.20;;;;;;5116103;28;20024;-38
2022/03/11 05:08:22;;;;;;;5.03;4.15;;;18.90;27.10;;;;;;5116323;28;20065;-38
2022/03/11 05:10:48;;;;;;;5.80;4.28;;;18.90;26.90;;;;;;5116434;28;20019;-38
2022/03/11 05:13:15;;;;;;;6.45;4.50;;;19.00;26.80;;;;;;5116365;28;20469;-37
2022/03/11 05:15:42;;;;;;;6.30;4.43;;;19.20;26.70;;;;;;5115957;28;20015;-38
2022/03/11 05:18:11;;;;;;;5.88;4.10;;;19.30;26.60;;;;;;5115813;28;20041;-39
2022/03/11 05:20:37;;;;;;;5.97;4.45;;;19.40;26.40;;;;;;5115783;28;20012;-39
2022/03/11 05:23:03;;;;;;;5.68;4.10;;;19.60;26.30;;;;;;5115987;28;20028;-37
2022/03/11 05:25:30;;;;;;;5.82;4.32;;;19.70;26.20;;;;;;5116095;28;20020;-38
2022/03/11 05:27:56;;;;;;;4.60;4.00;;;19.80;26.10;;;;;;5115447;28;20011;-43
2022/03/11 05:30:23;;;;;;;4.72;4.03;;;19.90;26.00;;;;;;5116484;28;20016;-38
2022/03/11 05:32:49;;;;;;;5.65;4.25;;;20.00;25.90;;;;;;5116531;28;20030;-40
2022/03/11 05:35:15;;;;;;;5.47;3.95;;;20.10;25.70;;;;;;5116237;28;20023;-39
2022/03/11 05:37:41;;;;;;;5.25;3.88;;;20.20;25.60;;;;;;5116355;28;20084;-38
2022/03/11 05:40:08;;;;;;;5.93;4.32;;;20.40;25.50;;;;;;5097964;28;20059;-40
2022/03/11 05:42:34;;;;;;;5.00;3.78;;;20.50;25.40;;;;;;5097958;28;20059;-38
2022/03/11 05:45:02;;;;;;;4.93;3.75;;;20.60;25.30;;;;;;5115874;28;20031;-38
2022/03/11 05:47:29;;;;;;;4.93;3.90;;;20.80;25.20;;;;;;5098870;28;20081;-37
2022/03/11 05:49:54;;;;;;;4.95;3.85;;;20.90;25.00;;;;;;5116080;28;20038;-37
2022/03/11 05:52:21;;;;;;;5.30;3.63;;;21.10;24.90;;;;;;5116181;28;20023;-38
2022/03/11 05:54:48;;;;;;;4.68;3.53;;;21.10;24.80;;;;;;5117173;28;20011;-37
2022/03/11 05:57:13;;;;;;;5.00;3.70;;;21.30;24.70;;;;;;5117217;28;20061;-37
2022/03/11 05:59:42;;;;;;;4.90;3.78;;;21.40;24.60;;;;;;5116329;28;20023;-40
2022/03/11 06:02:08;;;;;;;4.38;3.33;;;21.50;24.50;;;;;;5114921;28;20520;-36
2022/03/11 06:04:35;;;;;;;5.68;4.07;;;21.50;24.50;;;;;;5097294;28;20382;-38
2022/03/11 06:07:00;;;;;;;4.68;3.80;;;21.60;24.40;;;;;;5114774;28;20019;-38
2022/03/11 06:09:26;;;;;;;4.72;3.17;;;21.70;24.30;;;;;;5114948;28;20016;-38
2022/03/11 06:11:53;;;;;;;4.78;3.40;;;21.80;24.30;;;;;;5096535;28;20069;-36
2022/03/11 06:14:19;;;;;;;3.80;3.15;;;21.80;24.20;;;;;;5114406;28;20026;-37
2022/03/11 06:16:45;;;;;;;5.43;3.63;;;21.90;24.20;;;;;;5115483;28;20012;-39
2022/03/11 06:19:11;;;;;;;4.47;3.20;;;21.90;24.10;;;;;;5115708;28;20024;-38
2022/03/11 06:21:37;;;;;;;4.30;3.30;;;22.00;24.10;;;;;;5097629;28;20016;-37
2022/03/11 06:24:03;;;;;;;4.68;3.45;;;22.00;24.00;;;;;;5115319;28;20020;-37
2022/03/11 06:26:29;;;;;;;4.57;3.50;;;22.10;23.90;;;;;;5097212;28;20019;-37
2022/03/11 06:28:55;;;;;;;4.00;2.92;;;22.20;23.90;;;;;;5114829;28;20438;-36
2022/03/11 06:31:21;;;;;;;4.82;3.20;;;22.20;23.80;;;;;;5114922;28;20016;-37
2022/03/11 06:33:47;;;;;;;6.80;3.40;;;22.20;23.90;;;;;;5113344;28;20107;-37
2022/03/11 06:36:13;;;;;;;4.50;3.50;;;22.30;23.90;;;;;;5114998;28;20046;-37
2022/03/11 06:38:39;;;;;;;4.70;3.38;;;22.40;23.80;;;;;;5096990;28;20102;-37
2022/03/11 06:41:05;;;;;;;4.15;3.28;;;22.70;23.60;;;;;;5097395;28;20070;-36
2022/03/11 06:43:31;;;;;;;4.15;3.05;;;23.30;23.10;;;;;;5096489;28;20413;-37
2022/03/11 06:45:57;;;;;;;4.43;3.33;;;23.80;22.70;;;;;;5115682;28;20091;-37
2022/03/11 06:48:23;;;;;;;3.83;3.40;;;24.20;22.30;;;;;;5114056;28;20470;-38
2022/03/11 06:50:49;;;;;;;5.55;3.20;;;24.50;22.50;;;;;;5080398;28;20016;-38
2022/03/11 06:53:16;;;;;;;4.03;3.20;;;24.50;22.00;;;;;;5096281;28;20016;-46
2022/03/11 06:55:42;;;;;;;4.68;3.20;;;24.30;22.20;;;;;;5113541;28;20094;-37
2022/03/11 06:58:10;;;;;;;4.65;3.10;;;24.10;22.20;;;;;;5095188;28;20102;-37
2022/03/11 07:00:37;;;;;;;4.78;3.10;;;24.10;22.30;;;;;;5095781;28;20031;-37
2022/03/11 07:03:03;;;;;;;4.13;2.97;;;24.10;22.30;;;;;;5095293;28;20023;-38
2022/03/11 07:05:29;;;;;;;5.60;3.10;;;24.20;22.40;;;;;;5096161;28;20016;-37
2022/03/11 07:07:57;;;;;;;3.50;2.88;;;24.20;22.40;;;;;;5078212;28;20045;-37
2022/03/11 07:10:23;;;;;;;3.72;3.00;;;24.30;22.40;;;;;;5113092;28;20022;-42
2022/03/11 07:12:48;;;;;;;4.60;3.20;;;24.30;22.40;;;;;;5112954;28;20015;-37
2022/03/11 07:15:15;;;;;;;4.25;2.97;;;24.30;22.50;;;;;;5112622;28;20369;-38
2022/03/11 07:17:40;;;;;;;5.65;3.15;;;24.30;22.40;;;;;;5111285;28;20470;-38
2022/03/11 07:20:07;;;;;;;3.85;3.10;;;24.40;22.60;;;;;;5096636;28;20088;-38
2022/03/11 07:22:34;;;;;;;5.97;3.10;;;24.40;22.50;;;;;;5095585;28;20055;-38
2022/03/11 07:25:00;;;;;;;12.77;4.88;;;23.80;22.70;;;;;;5114913;28;20026;-37
2022/03/11 07:27:26;;;;;;;18.33;5.15;;;23.20;24.10;;;;;;5115944;28;20012;-39
2022/03/11 07:29:53;;;;;;;15.43;6.30;;;22.90;25.00;;;;;;5114895;28;20008;-38
2022/03/11 07:32:19;;;;;;;13.23;5.40;;;22.50;24.30;;;;;;5116354;28;20028;-38
2022/03/11 07:34:45;;;;;;;16.48;6.50;;;22.40;25.80;;;;;;5081072;28;20089;-39
2022/03/11 07:37:12;;;;;;;11.00;6.82;;;22.20;25.90;;;;;;5116423;28;20442;-38
2022/03/11 07:39:40;;;;;;;15.35;6.35;;;21.80;24.90;;;;;;5115756;28;20016;-38
2022/03/11 07:42:06;;;;;;;14.85;6.53;;;20.80;26.80;;;;;;5115759;28;20020;-38
2022/03/11 07:44:33;;;;;;;12.60;6.30;;;21.30;26.70;;;;;;5116295;28;20473;-37
2022/03/11 07:46:58;;;;;;;13.00;6.57;;;21.20;26.50;;;;;;5097456;28;20529;-37
2022/03/11 07:49:24;;;;;;;11.05;6.97;;;20.50;27.10;;;;;;5115371;28;20087;-36
2022/03/11 07:51:50;;;;;;;15.63;6.70;;;20.30;27.30;;;;;;5097145;28;20011;-37
2022/03/11 07:54:16;;;;;;;12.55;6.43;;;20.80;27.10;;;;;;5115115;28;20076;-37
2022/03/11 07:56:41;;;;;;;11.10;6.97;;;20.80;26.80;;;;;;5097035;28;20027;-37
2022/03/11 07:59:07;;;;;;;11.50;7.45;;;21.10;26.10;;;;;;5097221;28;20024;-38
2022/03/11 08:01:33;;;;;;;15.82;7.50;;;20.70;26.40;;;;;;5115037;28;20481;-37
2022/03/11 08:03:59;;;;;;;16.88;6.93;;;20.70;27.20;;;;;;5096839;28;20047;-37
2022/03/11 08:06:24;;;;;;;14.10;6.60;;;21.30;26.60;;;;;;5114938;28;20407;-38
2022/03/11 08:08:50;;;;;;;12.88;6.97;;;21.30;26.80;;;;;;5115085;28;20084;-38
2022/03/11 08:11:16;;;;;;;13.63;7.00;;;21.80;25.90;;;;;;5114568;28;20076;-37
2022/03/11 08:13:42;;;;;;;12.35;6.78;;;21.10;26.60;;;;;;5095622;28;20384;-37
2022/03/11 08:16:08;;;;;;;13.90;7.05;;;21.00;26.90;;;;;;5079624;28;20144;-37
2022/03/11 08:18:34;;;;;;;18.48;8.68;;;20.50;26.90;;;;;;5114040;28;20078;-37
2022/03/11 08:21:01;;;;;;;12.20;7.07;;;19.50;28.80;;;;;;5114387;28;20510;-35
2022/03/11 08:23:27;;;;;;;14.85;6.70;;;19.60;29.20;;;;;;5114605;28;20027;-36
2022/03/11 08:25:53;;;;;;;13.98;7.18;;;20.10;28.70;;;;;;5114000;28;20110;-35
2022/03/11 08:28:21;;;;;;;9.85;6.57;;;19.80;28.70;;;;;;5096192;28;20084;-35
2022/03/11 08:30:47;;;;;;;10.80;6.82;;;19.50;29.60;;;;;;5114601;28;20012;-36
2022/03/11 08:33:13;;;;;;;11.70;6.65;;;20.10;28.20;;;;;;5114516;28;20031;-36
2022/03/11 08:35:39;;;;;;;12.30;7.75;;;20.00;29.30;;;;;;5096378;28;20077;-35
2022/03/11 08:38:07;;;;;;;10.82;7.45;;;20.20;28.80;;;;;;5095665;28;20376;-36
2022/03/11 08:40:35;;;;;;;11.18;6.22;;;20.10;28.70;;;;;;5095945;28;20060;-35
2022/03/11 08:43:01;;;;;;;12.35;6.38;;;20.80;28.70;;;;;;5114363;28;20089;-36
2022/03/11 08:45:26;;;;;;;10.32;6.93;;;21.20;27.90;;;;;;5113968;28;20029;-36
2022/03/11 08:47:53;;;;;;;12.07;6.35;;;20.80;28.50;;;;;;5114140;28;20432;-36
2022/03/11 08:50:19;;;;;;;11.02;6.13;;;21.20;29.00;;;;;;5114042;28;20100;-36
2022/03/11 08:52:47;;;;;;;12.35;6.72;;;21.70;28.30;;;;;;5113531;28;20098;-36
2022/03/11 08:55:13;;;;;;;11.63;6.32;;;21.00;28.40;;;;;;5095943;28;20064;-36
2022/03/11 08:57:39;;;;;;;11.52;6.95;;;20.90;28.50;;;;;;5113430;28;20178;-36
2022/03/11 09:00:07;;;;;;;10.48;6.13;;;20.40;29.40;;;;;;5095587;28;20011;-37
2022/03/11 09:02:37;;;;;;;13.57;6.10;;;20.50;29.80;;;;;;5077976;28;20028;-37
2022/03/11 09:05:03;;;;;;;13.00;5.40;;;21.20;29.00;;;;;;5095081;28;20012;-37
2022/03/11 09:07:29;;;;;;;10.52;5.78;;;21.20;28.60;;;;;;5114420;28;20011;-38
2022/03/11 09:09:55;;;;;;;10.50;4.93;;;21.90;27.80;;;;;;5077430;28;20026;-36
2022/03/11 09:12:21;;;;;;;7.43;4.80;;;22.00;27.40;;;;;;5079472;28;20035;-36
2022/03/11 09:14:47;;;;;;;9.55;5.07;;;22.40;26.90;;;;;;5114308;28;20020;-35
2022/03/11 09:17:13;;;;;;;8.88;4.63;;;22.90;26.30;;;;;;5112163;28;20437;-38
2022/03/11 09:19:42;;;;;;;8.00;4.85;;;23.10;26.00;;;;;;5113179;28;20572;-36
2022/03/11 09:22:07;;;;;;;11.10;5.53;;;22.20;27.10;;;;;;5095521;28;20492;-35
2022/03/11 09:24:33;;;;;;;9.82;6.53;;;21.20;28.10;;;;;;5113749;28;20023;-34
2022/03/11 09:26:59;;;;;;;11.15;5.93;;;19.90;29.90;;;;;;5113280;28;20508;-37
2022/03/11 09:29:28;;;;;;;12.85;6.35;;;19.60;30.90;;;;;;5095221;28;20046;-37
2022/03/11 09:31:55;;;;;;;9.67;5.80;;;19.90;30.60;;;;;;5113231;28;20076;-38
2022/03/11 09:34:22;;;;;;;9.57;6.10;;;20.40;29.70;;;;;;5113411;28;20408;-38
2022/03/11 09:36:47;;;;;;;13.80;7.07;;;20.20;30.10;;;;;;5078537;28;20088;-36
2022/03/11 09:39:13;;;;;;;9.80;6.18;;;18.60;31.90;;;;;;5113222;28;20463;-37
2022/03/11 09:41:40;;;;;;;7.45;5.40;;;19.10;32.10;;;;;;5093914;28;20044;-38
2022/03/11 09:44:06;;;;;;;11.98;4.63;;;20.60;30.20;;;;;;5095037;28;20164;-38
2022/03/11 09:46:33;;;;;;;8.43;4.20;;;21.70;29.00;;;;;;5094890;28;20011;-37
2022/03/11 09:48:58;;;;;;;9.57;4.72;;;22.50;28.20;;;;;;5078253;28;20008;-37
2022/03/11 09:51:24;;;;;;;9.77;3.80;;;23.10;27.60;;;;;;5113233;28;20442;-37
2022/03/11 09:53:52;;;;;;;9.80;4.20;;;23.50;27.20;;;;;;5094302;28;20386;-34
2022/03/11 09:56:20;;;;;;;5.25;3.75;;;23.90;27.00;;;;;;5094322;28;20020;-36
2022/03/11 09:58:46;;;;;;;7.10;3.53;;;24.20;26.80;;;;;;5077871;28;20026;-36
2022/03/11 10:01:11;;;;;;;7.03;3.30;;;24.50;26.70;;;;;;5094152;28;20044;-35
2022/03/11 10:03:37;;;;;;;5.47;3.10;;;24.60;26.60;;;;;;5093912;28;20064;-34
2022/03/11 10:06:03;;;;;;;4.78;3.35;;;24.80;26.60;;;;;;5093994;28;20038;-36
2022/03/11 10:08:37;;;;;;;8.60;3.60;;;24.90;26.60;;;;;;5093976;28;20015;-35
2022/03/11 10:11:22;;;;;;;9.70;5.20;;;25.00;26.60;;;;;;5112364;28;20032;-37
2022/03/11 10:13:48;;;;;;;11.23;6.00;;;23.10;27.40;;;;;;5113403;28;20069;-36
2022/03/11 10:16:18;;;;;;;8.95;6.00;;;20.60;30.60;;;;;;5095623;28;20011;-39
2022/03/11 10:19:13;;;;;;;13.68;5.80;;;20.50;30.90;;;;;;5113799;28;20024;-38
2022/03/11 10:21:45;;;;;;;10.60;5.25;;;20.40;31.90;;;;;;5100170;28;20031;-38
2022/03/11 10:24:15;;;;;;;15.75;5.43;;;20.60;31.90;;;;;;5112855;28;20139;-37
2022/03/11 10:26:47;;;;;;;12.98;5.88;;;20.80;31.30;;;;;;5113141;28;20023;-38
2022/03/11 10:29:23;;;;;;;11.45;5.50;;;20.70;31.70;;;;;;5113250;28;20519;-37
2022/03/11 10:31:50;;;;;;;11.50;5.68;;;20.40;32.10;;;;;;5096729;28;20012;-34
2022/03/11 10:34:21;;;;;;;10.23;5.75;;;20.30;32.40;;;;;;5114434;28;20023;-37
2022/03/11 10:36:50;;;;;;;11.30;6.30;;;20.10;32.80;;;;;;5113568;28;20050;-36
2022/03/11 10:39:26;;;;;;;10.75;5.90;;;19.80;33.40;;;;;;5113309;28;20016;-37
2022/03/11 10:41:53;;;;;;;13.88;7.30;;;19.70;33.60;;;;;;5094681;28;20055;-37
2022/03/11 10:44:26;;;;;;;21.48;10.20;;;19.80;33.70;;;;;;5113257;28;20028;-36
2022/03/11 10:47:21;;;;;;;16.42;9.20;;;19.70;34.00;;;;;;5112365;28;20098;-36
2022/03/11 10:49:50;;;;;;;20.58;11.85;;;19.80;33.70;;;;;;5095799;28;20488;-36
2022/03/11 10:52:33;;;;;;;20.10;11.87;;;19.90;33.80;;;;;;5096410;28;20061;-37
2022/03/11 10:55:02;;;;;;;24.58;13.38;;;19.80;34.00;;;;;;5116554;28;20358;-36
2022/03/11 10:57:38;;;;;;;22.55;12.45;;;19.60;34.00;;;;;;5099902;28;20019;-36
2022/03/11 11:00:16;;;;;;;16.42;9.68;;;19.70;34.40;;;;;;5100690;28;20106;-38
2022/03/11 11:02:47;;;;;;;12.65;8.55;;;20.60;33.80;;;;;;5100265;28;20024;-36
2022/03/11 11:05:13;;;;;;;14.25;6.68;;;21.30;33.00;;;;;;5119510;28;20022;-36
2022/03/11 11:07:42;;;;;;;15.02;6.32;;;21.60;31.70;;;;;;5103337;28;20004;-36
2022/03/11 11:10:09;;;;;;;10.50;5.43;;;21.90;31.50;;;;;;5118878;28;20099;-36
2022/03/11 11:12:35;;;;;;;8.52;5.25;;;21.50;31.20;;;;;;5118779;28;20012;-36
2022/03/11 11:15:05;;;;;;;10.32;4.63;;;21.90;30.60;;;;;;5120195;28;20376;-36
2022/03/11 11:17:30;;;;;;;8.48;4.80;;;22.20;30.00;;;;;;5120600;28;20027;-38
2022/03/11 11:19:57;;;;;;;7.70;4.65;;;22.10;29.90;;;;;;5119076;28;20546;-36
2022/03/11 11:22:25;;;;;;;8.63;4.03;;;22.30;29.70;;;;;;5118868;28;20028;-36
2022/03/11 11:24:53;;;;;;;8.07;3.83;;;22.50;29.40;;;;;;5100519;28;20073;-36
2022/03/11 11:27:20;;;;;;;6.80;4.80;;;22.70;29.10;;;;;;5118415;28;20011;-36
2022/03/11 11:29:47;;;;;;;6.15;4.43;;;21.90;29.90;;;;;;5101263;28;20488;-35
2022/03/11 11:32:13;;;;;;;8.40;4.40;;;21.00;31.20;;;;;;5118430;28;20521;-36
2022/03/11 11:34:38;;;;;;;7.90;5.00;;;20.90;31.50;;;;;;5100133;28;20086;-40
2022/03/11 11:37:06;;;;;;;6.47;5.03;;;20.30;32.30;;;;;;5118983;28;20019;-37
2022/03/11 11:39:39;;;;;;;7.65;4.93;;;19.80;33.50;;;;;;5118829;28;20475;-39
2022/03/11 11:42:12;;;;;;;6.43;4.53;;;20.10;33.10;;;;;;5117583;28;20043;-38
2022/03/11 11:44:40;;;;;;;7.28;4.85;;;20.10;33.30;;;;;;5098159;28;20020;-37
2022/03/11 11:47:09;;;;;;;9.05;4.90;;;20.30;32.90;;;;;;5097844;28;20015;-37
2022/03/11 11:49:44;;;;;;;9.07;4.53;;;19.70;34.30;;;;;;5115394;28;20016;-38
2022/03/11 11:52:12;;;;;;;9.60;3.92;;;20.30;33.50;;;;;;5115663;28;20008;-40
2022/03/11 11:54:39;;;;;;;12.82;3.53;;;21.10;33.70;;;;;;5097602;28;20019;-37
2022/03/11 11:57:05;;;;;;;21.58;3.90;;;21.60;33.30;;;;;;5115495;28;20030;-38
2022/03/11 11:59:35;;;;;;;14.57;3.75;;;22.10;33.00;;;;;;5097681;28;20022;-38
2022/03/11 12:02:02;;;;;;;14.40;3.50;;;22.40;32.90;;;;;;5115524;28;20028;-35
2022/03/11 12:04:38;;;;;;;11.70;2.90;;;22.40;32.90;;;;;;5096545;28;20028;-40
2022/03/11 12:07:25;;;;;;;13.13;4.05;;;22.60;32.90;;;;;;5114913;28;20099;-36
2022/03/11 12:09:54;;;;;;;10.25;5.90;;;22.50;33.00;;;;;;5095331;28;20026;-35
2022/03/11 12:12:24;;;;;;;29.52;14.38;;;22.50;33.00;;;;;;5113658;28;20051;-35
2022/03/11 12:15:04;;;;;;;43.22;17.35;;;22.70;33.40;;;;;;5114335;28;20126;-38
2022/03/11 12:17:42;;;;;;;22.80;12.52;;;23.10;33.20;;;;;;5096238;28;20043;-36
2022/03/11 12:20:33;;;;;;;33.47;13.18;;;23.10;33.00;;;;;;5096461;28;20095;-36
2022/03/11 12:23:09;;;;;;;34.05;18.70;;;23.20;33.30;;;;;;5113951;28;20027;-35
2022/03/11 12:25:45;;;;;;;42.05;25.58;;;23.40;33.10;;;;;;5113760;28;20098;-36
2022/03/11 12:28:17;;;;;;;37.47;23.77;;;23.40;33.50;;;;;;5095219;28;20016;-36
2022/03/11 12:30:51;;;;;;;34.33;19.38;;;23.30;33.20;;;;;;5095299;28;20022;-37
2022/03/11 12:33:18;;;;;;;30.40;18.10;;;23.40;33.30;;;;;;5114255;28;20094;-36
2022/03/11 12:35:45;;;;;;;18.08;11.38;;;23.50;32.80;;;;;;5113645;28;20043;-37
2022/03/11 12:38:13;;;;;;;25.90;10.63;;;23.00;33.20;;;;;;5094934;28;20015;-37
2022/03/11 12:40:39;;;;;;;25.58;9.52;;;22.90;33.50;;;;;;5091689;28;20070;-37